EFW75J LDDU-EGKK
Flight info
| Callsign | EFW75J |
|---|---|
| Flight time | N/A |
| Altitude | 36000 |
| Route | AMUGO DCT UVODI DCT SAL DCT ROTAR DCT BORMI DCT RESIA DCT ELMUR DCT RIPUS DCT DITON DCT HOC DCT LUL DCT RLP DCT ROTSI DCT KOTUN DCT NINAL DCT KESAX DCT KUNAV |
| Aircraft | A321/M-SDE3FGHIRWY/LB1 |
Departure
| Time | 2026-04-30 20:48 |
|---|---|
| Airport | Dubrovnik Ruđer Bošković Airport (LDDU) |
Arrival
| Time | N/A |
|---|---|
| Airport | London Gatwick Airport (EGKK) |
| Time | Latitude | Longitude | Altitude | Speed | Heading |
|---|---|---|---|---|---|
| 2026-04-30 20:12 | 42.56110 | 18.26249 | 534 ft | 0 kts | 208° |
| 2026-04-30 20:41 | 42.56128 | 18.26262 | 534 ft | 4 kts | 208° |
| 2026-04-30 20:41 | 42.56147 | 18.26276 | 534 ft | 4 kts | 218° |
| 2026-04-30 20:41 | 42.56157 | 18.26299 | 534 ft | 4 kts | 291° |
| 2026-04-30 20:41 | 42.56146 | 18.26330 | 534 ft | 3 kts | 298° |
| 2026-04-30 20:42 | 42.56144 | 18.26334 | 534 ft | 0 kts | 298° |
| 2026-04-30 20:44 | 42.56145 | 18.26331 | 534 ft | 2 kts | 298° |
| 2026-04-30 20:44 | 42.56184 | 18.26233 | 534 ft | 9 kts | 298° |
| 2026-04-30 20:45 | 42.56265 | 18.26028 | 534 ft | 16 kts | 298° |
| 2026-04-30 20:45 | 42.56319 | 18.25891 | 534 ft | 17 kts | 298° |
| 2026-04-30 20:45 | 42.56384 | 18.25730 | 534 ft | 22 kts | 298° |
| 2026-04-30 20:46 | 42.56640 | 18.25091 | 534 ft | 28 kts | 298° |
| 2026-04-30 20:46 | 42.56733 | 18.24856 | 534 ft | 29 kts | 299° |
| 2026-04-30 20:47 | 42.56933 | 18.24802 | 533 ft | 19 kts | 97° |
| 2026-04-30 20:47 | 42.56901 | 18.24895 | 533 ft | 0 kts | 117° |
| 2026-04-30 20:48 | 42.56550 | 18.25793 | 535 ft | 124 kts | 118° |
| 2026-04-30 20:48 | 42.56041 | 18.27055 | 564 ft | 176 kts | 116° |
| 2026-04-30 20:48 | 42.55439 | 18.28524 | 1228 ft | 177 kts | 113° |
| 2026-04-30 20:48 | 42.54846 | 18.30024 | 1953 ft | 186 kts | 113° |
| 2026-04-30 20:49 | 42.54211 | 18.31632 | 2411 ft | 201 kts | 114° |
| 2026-04-30 20:49 | 42.53434 | 18.33299 | 2853 ft | 220 kts | 134° |
| 2026-04-30 20:49 | 42.52018 | 18.34210 | 3489 ft | 241 kts | 171° |
| 2026-04-30 20:50 | 42.49135 | 18.32013 | 5105 ft | 248 kts | 232° |
| 2026-04-30 20:50 | 42.47914 | 18.30419 | 6057 ft | 245 kts | 211° |
| 2026-04-30 20:50 | 42.46356 | 18.29541 | 6878 ft | 244 kts | 195° |
| 2026-04-30 20:50 | 42.44700 | 18.29046 | 7657 ft | 245 kts | 191° |
| 2026-04-30 20:51 | 42.43011 | 18.28656 | 8358 ft | 249 kts | 191° |
| 2026-04-30 20:51 | 42.39942 | 18.26695 | 9659 ft | 249 kts | 240° |
| 2026-04-30 20:51 | 42.39356 | 18.24501 | 10014 ft | 257 kts | 272° |
| 2026-04-30 20:52 | 42.39691 | 18.22088 | 10236 ft | 271 kts | 292° |
| 2026-04-30 20:52 | 42.40284 | 18.19647 | 10721 ft | 280 kts | 291° |
| 2026-04-30 20:52 | 42.41496 | 18.14569 | 12053 ft | 287 kts | 290° |
| 2026-04-30 20:53 | 42.42102 | 18.11980 | 12736 ft | 291 kts | 290° |
| 2026-04-30 20:53 | 42.42737 | 18.09271 | 12894 ft | 313 kts | 290° |
| 2026-04-30 20:53 | 42.43415 | 18.06377 | 13020 ft | 333 kts | 290° |
| 2026-04-30 20:54 | 42.44605 | 18.01255 | 13742 ft | 348 kts | 289° |
| 2026-04-30 20:54 | 42.45578 | 17.97038 | 14539 ft | 352 kts | 289° |
| 2026-04-30 20:54 | 42.46310 | 17.93865 | 15123 ft | 355 kts | 289° |
| 2026-04-30 20:55 | 42.47535 | 17.88537 | 16120 ft | 358 kts | 289° |
| 2026-04-30 20:55 | 42.48275 | 17.85307 | 16722 ft | 360 kts | 289° |
| 2026-04-30 20:55 | 42.49020 | 17.82059 | 17299 ft | 362 kts | 289° |
| 2026-04-30 20:56 | 42.50517 | 17.75487 | 18468 ft | 367 kts | 288° |
| 2026-04-30 20:56 | 42.51272 | 17.72177 | 18956 ft | 369 kts | 288° |
| 2026-04-30 20:56 | 42.52793 | 17.65499 | 19936 ft | 372 kts | 288° |
| 2026-04-30 20:57 | 42.53561 | 17.62135 | 20427 ft | 374 kts | 288° |
| 2026-04-30 20:57 | 42.54480 | 17.58839 | 20921 ft | 375 kts | 297° |
| 2026-04-30 20:57 | 42.55828 | 17.55804 | 21392 ft | 376 kts | 307° |
| 2026-04-30 20:58 | 42.58995 | 17.50117 | 22322 ft | 380 kts | 307° |
| 2026-04-30 20:58 | 42.60584 | 17.47247 | 22798 ft | 382 kts | 307° |
| 2026-04-30 20:58 | 42.62181 | 17.44351 | 23264 ft | 384 kts | 307° |
| 2026-04-30 20:58 | 42.63781 | 17.41444 | 23729 ft | 386 kts | 306° |
| 2026-04-30 20:59 | 42.67012 | 17.35566 | 24481 ft | 390 kts | 306° |
| 2026-04-30 20:59 | 42.68638 | 17.32601 | 24874 ft | 392 kts | 306° |
| 2026-04-30 21:00 | 42.71885 | 17.26683 | 25640 ft | 395 kts | 306° |
| 2026-04-30 21:00 | 42.75190 | 17.20654 | 26381 ft | 399 kts | 306° |
| 2026-04-30 21:01 | 42.78506 | 17.14576 | 27120 ft | 402 kts | 306° |
| 2026-04-30 21:01 | 42.80175 | 17.11510 | 27493 ft | 404 kts | 306° |
| 2026-04-30 21:01 | 42.83534 | 17.05334 | 28203 ft | 407 kts | 306° |
| 2026-04-30 21:02 | 42.85223 | 17.02228 | 28524 ft | 409 kts | 306° |
| 2026-04-30 21:02 | 42.86925 | 16.99097 | 28849 ft | 411 kts | 306° |
| 2026-04-30 21:02 | 42.88629 | 16.95957 | 29199 ft | 413 kts | 306° |
| 2026-04-30 21:02 | 42.90342 | 16.92795 | 29513 ft | 415 kts | 306° |
| 2026-04-30 21:03 | 42.92054 | 16.89625 | 29811 ft | 416 kts | 305° |
| 2026-04-30 21:03 | 42.93773 | 16.86431 | 30076 ft | 418 kts | 305° |
| 2026-04-30 21:03 | 42.95496 | 16.83223 | 30348 ft | 420 kts | 305° |
| 2026-04-30 21:03 | 42.97226 | 16.80011 | 30615 ft | 420 kts | 305° |
| 2026-04-30 21:04 | 42.98953 | 16.76806 | 30932 ft | 419 kts | 306° |
| 2026-04-30 21:04 | 43.00682 | 16.73595 | 31186 ft | 419 kts | 306° |
| 2026-04-30 21:04 | 43.04132 | 16.67175 | 31722 ft | 419 kts | 306° |
| 2026-04-30 21:05 | 43.05833 | 16.64007 | 31985 ft | 419 kts | 306° |
| 2026-04-30 21:05 | 43.07553 | 16.60796 | 32264 ft | 418 kts | 306° |
| 2026-04-30 21:05 | 43.09266 | 16.57587 | 32543 ft | 418 kts | 306° |
| 2026-04-30 21:05 | 43.10980 | 16.54377 | 32829 ft | 417 kts | 306° |
| 2026-04-30 21:06 | 43.12748 | 16.51237 | 33112 ft | 416 kts | 308° |
| 2026-04-30 21:06 | 43.14592 | 16.48185 | 33383 ft | 416 kts | 309° |
| 2026-04-30 21:06 | 43.16479 | 16.45183 | 33649 ft | 415 kts | 310° |
| 2026-04-30 21:06 | 43.18378 | 16.42199 | 33931 ft | 415 kts | 310° |
| 2026-04-30 21:07 | 43.20268 | 16.39214 | 34207 ft | 414 kts | 310° |
| 2026-04-30 21:07 | 43.22138 | 16.36224 | 34428 ft | 414 kts | 309° |
| 2026-04-30 21:07 | 43.24006 | 16.33205 | 34615 ft | 414 kts | 309° |
| 2026-04-30 21:07 | 43.25858 | 16.30183 | 34773 ft | 415 kts | 309° |
| 2026-04-30 21:08 | 43.27716 | 16.27130 | 34929 ft | 417 kts | 309° |
| 2026-04-30 21:08 | 43.29570 | 16.24075 | 35109 ft | 417 kts | 309° |
| 2026-04-30 21:08 | 43.31429 | 16.21013 | 35297 ft | 418 kts | 309° |
| 2026-04-30 21:08 | 43.33287 | 16.17948 | 35488 ft | 418 kts | 309° |
| 2026-04-30 21:09 | 43.35157 | 16.14867 | 35681 ft | 418 kts | 309° |
| 2026-04-30 21:09 | 43.37020 | 16.11796 | 35874 ft | 418 kts | 309° |
| 2026-04-30 21:09 | 43.38854 | 16.08777 | 36063 ft | 418 kts | 309° |
| 2026-04-30 21:09 | 43.40725 | 16.05695 | 36221 ft | 419 kts | 310° |
| 2026-04-30 21:10 | 43.44447 | 15.99561 | 36255 ft | 418 kts | 309° |
| 2026-04-30 21:10 | 43.48168 | 15.93413 | 36258 ft | 418 kts | 310° |
| 2026-04-30 21:11 | 43.51893 | 15.87253 | 36267 ft | 418 kts | 310° |
| 2026-04-30 21:11 | 43.55604 | 15.81078 | 36265 ft | 419 kts | 310° |
| 2026-04-30 21:12 | 43.59311 | 15.74872 | 36270 ft | 419 kts | 310° |
| 2026-04-30 21:12 | 43.63024 | 15.68673 | 36275 ft | 420 kts | 310° |
| 2026-04-30 21:13 | 43.66725 | 15.62491 | 36274 ft | 420 kts | 310° |
| 2026-04-30 21:13 | 43.70434 | 15.56277 | 36288 ft | 420 kts | 310° |
| 2026-04-30 21:14 | 43.74148 | 15.50036 | 36296 ft | 420 kts | 310° |
| 2026-04-30 21:14 | 43.77861 | 15.43785 | 36303 ft | 420 kts | 310° |
| 2026-04-30 21:15 | 43.81570 | 15.37528 | 36311 ft | 420 kts | 310° |
| 2026-04-30 21:15 | 43.85242 | 15.31309 | 36317 ft | 420 kts | 310° |
| 2026-04-30 21:16 | 43.88939 | 15.25050 | 36307 ft | 419 kts | 310° |
| 2026-04-30 21:16 | 43.92628 | 15.18781 | 36321 ft | 419 kts | 310° |
| 2026-04-30 21:17 | 43.96354 | 15.12571 | 36325 ft | 419 kts | 311° |
| 2026-04-30 21:17 | 44.00221 | 15.06513 | 36339 ft | 419 kts | 313° |
| 2026-04-30 21:18 | 44.04092 | 15.00490 | 36331 ft | 419 kts | 312° |
| 2026-04-30 21:18 | 44.07958 | 14.94385 | 36317 ft | 419 kts | 312° |
| 2026-04-30 21:19 | 44.11790 | 14.88278 | 36330 ft | 419 kts | 312° |
| 2026-04-30 21:19 | 44.15590 | 14.82193 | 36334 ft | 419 kts | 312° |
| 2026-04-30 21:20 | 44.19414 | 14.76067 | 36332 ft | 419 kts | 312° |
| 2026-04-30 21:20 | 44.23232 | 14.69954 | 36335 ft | 418 kts | 312° |
| 2026-04-30 21:21 | 44.27052 | 14.63816 | 36339 ft | 419 kts | 312° |
| 2026-04-30 21:22 | 44.32774 | 14.54585 | 36333 ft | 419 kts | 312° |
| 2026-04-30 21:23 | 44.40415 | 14.42257 | 36334 ft | 419 kts | 312° |
| 2026-04-30 21:23 | 44.46104 | 14.33006 | 36324 ft | 419 kts | 312° |
| 2026-04-30 21:24 | 44.49906 | 14.26814 | 36343 ft | 419 kts | 312° |
| 2026-04-30 21:24 | 44.53710 | 14.20606 | 36340 ft | 420 kts | 312° |
| 2026-04-30 21:25 | 44.59433 | 14.11262 | 36339 ft | 421 kts | 312° |
| 2026-04-30 21:26 | 44.65153 | 14.01885 | 36335 ft | 421 kts | 312° |
| 2026-04-30 21:27 | 44.70828 | 13.92528 | 36348 ft | 421 kts | 312° |
| 2026-04-30 21:27 | 44.74620 | 13.86262 | 36358 ft | 421 kts | 313° |
| 2026-04-30 21:28 | 44.80319 | 13.76829 | 36324 ft | 422 kts | 313° |
| 2026-04-30 21:29 | 44.86020 | 13.67358 | 36340 ft | 423 kts | 313° |
| 2026-04-30 21:30 | 44.95521 | 13.51512 | 36355 ft | 423 kts | 313° |
| 2026-04-30 21:31 | 45.05007 | 13.35589 | 36360 ft | 424 kts | 313° |
| 2026-04-30 21:32 | 45.10701 | 13.25998 | 36367 ft | 424 kts | 313° |
| 2026-04-30 21:32 | 45.14465 | 13.19632 | 36362 ft | 424 kts | 313° |
| 2026-04-30 21:33 | 45.20140 | 13.09997 | 36356 ft | 424 kts | 313° |
| 2026-04-30 21:34 | 45.23926 | 13.03564 | 36368 ft | 425 kts | 313° |
| 2026-04-30 21:34 | 45.29039 | 12.93223 | 36360 ft | 429 kts | 306° |
| 2026-04-30 21:35 | 45.32183 | 12.85997 | 36363 ft | 430 kts | 306° |
| 2026-04-30 21:35 | 45.35328 | 12.78767 | 36340 ft | 430 kts | 306° |
| 2026-04-30 21:36 | 45.38471 | 12.71507 | 36353 ft | 431 kts | 306° |
| 2026-04-30 21:37 | 45.44749 | 12.56956 | 36369 ft | 432 kts | 306° |
| 2026-04-30 21:37 | 45.47884 | 12.49664 | 36347 ft | 432 kts | 306° |
| 2026-04-30 21:38 | 45.51013 | 12.42350 | 36357 ft | 433 kts | 306° |
| 2026-04-30 21:38 | 45.54160 | 12.35000 | 36362 ft | 434 kts | 306° |
| 2026-04-30 21:39 | 45.57304 | 12.27641 | 36372 ft | 435 kts | 306° |
| 2026-04-30 21:39 | 45.60421 | 12.20293 | 36375 ft | 435 kts | 306° |
| 2026-04-30 21:40 | 45.63554 | 12.12883 | 36346 ft | 436 kts | 306° |
| 2026-04-30 21:40 | 45.66693 | 12.05455 | 36362 ft | 436 kts | 306° |
| 2026-04-30 21:41 | 45.69827 | 11.98041 | 36372 ft | 437 kts | 306° |
| 2026-04-30 21:41 | 45.72967 | 11.90584 | 36359 ft | 437 kts | 306° |
| 2026-04-30 21:42 | 45.76095 | 11.83140 | 36332 ft | 437 kts | 306° |
| 2026-04-30 21:42 | 45.79223 | 11.75665 | 36343 ft | 438 kts | 306° |
| 2026-04-30 21:43 | 45.81818 | 11.69432 | 36371 ft | 438 kts | 306° |
| 2026-04-30 21:43 | 45.85454 | 11.60691 | 36371 ft | 439 kts | 306° |
| 2026-04-30 21:44 | 45.88073 | 11.54389 | 36374 ft | 439 kts | 306° |
| 2026-04-30 21:44 | 45.91699 | 11.45628 | 36367 ft | 439 kts | 306° |
| 2026-04-30 21:45 | 45.94820 | 11.38080 | 36373 ft | 440 kts | 306° |
| 2026-04-30 21:45 | 45.97938 | 11.30519 | 36373 ft | 440 kts | 306° |
| 2026-04-30 21:46 | 46.00519 | 11.24227 | 36357 ft | 440 kts | 306° |
| 2026-04-30 21:46 | 46.03623 | 11.16638 | 36362 ft | 440 kts | 306° |
| 2026-04-30 21:47 | 46.06706 | 11.09007 | 36331 ft | 441 kts | 306° |
| 2026-04-30 21:47 | 46.09770 | 11.01333 | 36327 ft | 442 kts | 306° |
| 2026-04-30 21:48 | 46.12829 | 10.93641 | 36337 ft | 443 kts | 306° |
| 2026-04-30 21:48 | 46.15892 | 10.85929 | 36337 ft | 443 kts | 306° |
| 2026-04-30 21:49 | 46.18960 | 10.78202 | 36306 ft | 443 kts | 305° |
| 2026-04-30 21:49 | 46.21995 | 10.70534 | 36325 ft | 443 kts | 305° |
| 2026-04-30 21:50 | 46.25043 | 10.62805 | 36328 ft | 443 kts | 305° |
| 2026-04-30 21:50 | 46.28084 | 10.55070 | 36324 ft | 443 kts | 305° |
| 2026-04-30 21:51 | 46.31127 | 10.47320 | 36326 ft | 443 kts | 305° |
| 2026-04-30 21:51 | 46.34165 | 10.39571 | 36293 ft | 443 kts | 305° |
| 2026-04-30 21:52 | 46.37190 | 10.31813 | 36306 ft | 443 kts | 305° |
| 2026-04-30 21:52 | 46.40218 | 10.24052 | 36310 ft | 442 kts | 305° |
| 2026-04-30 21:53 | 46.43247 | 10.16281 | 36333 ft | 443 kts | 304° |
| 2026-04-30 21:53 | 46.46254 | 10.08491 | 36312 ft | 443 kts | 304° |
| 2026-04-30 21:54 | 46.49724 | 10.01238 | 36340 ft | 434 kts | 316° |
| 2026-04-30 21:54 | 46.53708 | 9.94713 | 36360 ft | 434 kts | 316° |
| 2026-04-30 21:55 | 46.57710 | 9.88131 | 36346 ft | 435 kts | 316° |
| 2026-04-30 21:55 | 46.61716 | 9.81516 | 36340 ft | 436 kts | 316° |
| 2026-04-30 21:56 | 46.65727 | 9.74888 | 36312 ft | 436 kts | 316° |
| 2026-04-30 21:56 | 46.69731 | 9.68244 | 36309 ft | 437 kts | 316° |
| 2026-04-30 21:57 | 46.73735 | 9.61578 | 36298 ft | 437 kts | 316° |
| 2026-04-30 21:57 | 46.77733 | 9.54899 | 36286 ft | 437 kts | 316° |
| 2026-04-30 21:58 | 46.81735 | 9.48202 | 36287 ft | 438 kts | 316° |
| 2026-04-30 21:58 | 46.85745 | 9.41495 | 36244 ft | 437 kts | 316° |
| 2026-04-30 21:59 | 46.89745 | 9.34776 | 36254 ft | 439 kts | 315° |
| 2026-04-30 22:00 | 46.95759 | 9.24650 | 36267 ft | 440 kts | 315° |
| 2026-04-30 22:00 | 47.01738 | 9.14545 | 36286 ft | 440 kts | 315° |
| 2026-04-30 22:01 | 47.05731 | 9.07757 | 36285 ft | 439 kts | 315° |
| 2026-04-30 22:01 | 47.09733 | 9.00947 | 36281 ft | 441 kts | 315° |
| 2026-04-30 22:02 | 47.13739 | 8.94105 | 36295 ft | 443 kts | 313° |
| 2026-04-30 22:02 | 47.16862 | 8.86223 | 36311 ft | 453 kts | 295° |
| 2026-04-30 22:03 | 47.19070 | 8.77530 | 36320 ft | 454 kts | 295° |
| 2026-04-30 22:03 | 47.21290 | 8.68833 | 36297 ft | 454 kts | 294° |
| 2026-04-30 22:04 | 47.23485 | 8.60190 | 36317 ft | 454 kts | 294° |
| 2026-04-30 22:05 | 47.26783 | 8.47085 | 36324 ft | 455 kts | 294° |
| 2026-04-30 22:05 | 47.28984 | 8.38346 | 36329 ft | 455 kts | 294° |
| 2026-04-30 22:06 | 47.31185 | 8.29579 | 36306 ft | 456 kts | 293° |
| 2026-04-30 22:06 | 47.34451 | 8.16418 | 36320 ft | 456 kts | 293° |
| 2026-04-30 22:07 | 47.36624 | 8.07632 | 36330 ft | 456 kts | 293° |
| 2026-04-30 22:07 | 47.38779 | 7.98891 | 36329 ft | 456 kts | 292° |
| 2026-04-30 22:08 | 47.40934 | 7.90093 | 36325 ft | 456 kts | 292° |
| 2026-04-30 22:08 | 47.43086 | 7.81289 | 36313 ft | 456 kts | 292° |
| 2026-04-30 22:09 | 47.45238 | 7.72471 | 36308 ft | 456 kts | 292° |
| 2026-04-30 22:09 | 47.47181 | 7.63555 | 36303 ft | 458 kts | 287° |
| 2026-04-30 22:10 | 47.48699 | 7.54401 | 36299 ft | 458 kts | 287° |
| 2026-04-30 22:10 | 47.50217 | 7.45252 | 36300 ft | 458 kts | 286° |
| 2026-04-30 22:11 | 47.52494 | 7.31520 | 36314 ft | 458 kts | 286° |
| 2026-04-30 22:12 | 47.54003 | 7.22367 | 36313 ft | 458 kts | 286° |
| 2026-04-30 22:12 | 47.55490 | 7.13265 | 36307 ft | 458 kts | 286° |
| 2026-04-30 22:13 | 47.56981 | 7.04091 | 36300 ft | 458 kts | 285° |
| 2026-04-30 22:13 | 47.58471 | 6.94930 | 36297 ft | 458 kts | 285° |
| 2026-04-30 22:14 | 47.59950 | 6.85761 | 36285 ft | 458 kts | 285° |
| 2026-04-30 22:14 | 47.61423 | 6.76572 | 36283 ft | 458 kts | 285° |
| 2026-04-30 22:15 | 47.62891 | 6.67378 | 36267 ft | 459 kts | 285° |
| 2026-04-30 22:15 | 47.64354 | 6.58155 | 36272 ft | 459 kts | 284° |
| 2026-04-30 22:16 | 47.65804 | 6.48937 | 36272 ft | 459 kts | 284° |
| 2026-04-30 22:17 | 47.68675 | 6.30526 | 36262 ft | 459 kts | 284° |
| 2026-04-30 22:17 | 47.71372 | 6.16904 | 36266 ft | 458 kts | 290° |
| 2026-04-30 22:18 | 47.74422 | 6.03432 | 36265 ft | 459 kts | 289° |
| 2026-04-30 22:19 | 47.77281 | 5.89870 | 36254 ft | 459 kts | 288° |
| 2026-04-30 22:20 | 47.80087 | 5.76256 | 36251 ft | 459 kts | 288° |
| 2026-04-30 22:20 | 47.82908 | 5.62694 | 36251 ft | 459 kts | 288° |
| 2026-04-30 22:21 | 47.84792 | 5.53608 | 36254 ft | 459 kts | 288° |
| 2026-04-30 22:21 | 47.86656 | 5.44510 | 36250 ft | 460 kts | 287° |
| 2026-04-30 22:22 | 47.88518 | 5.35372 | 36245 ft | 461 kts | 287° |
| 2026-04-30 22:22 | 47.90696 | 5.26417 | 36247 ft | 459 kts | 298° |
| 2026-04-30 22:23 | 47.94395 | 5.18732 | 36247 ft | 456 kts | 314° |
| 2026-04-30 22:23 | 47.98663 | 5.11722 | 36247 ft | 457 kts | 313° |
| 2026-04-30 22:24 | 48.02927 | 5.04677 | 36242 ft | 458 kts | 313° |
| 2026-04-30 22:24 | 48.07202 | 4.97602 | 36240 ft | 459 kts | 313° |
| 2026-04-30 22:25 | 48.11483 | 4.90493 | 36240 ft | 460 kts | 313° |
| 2026-04-30 22:25 | 48.15736 | 4.83430 | 36247 ft | 460 kts | 313° |
| 2026-04-30 22:26 | 48.22148 | 4.72731 | 36249 ft | 460 kts | 313° |
| 2026-04-30 22:27 | 48.26411 | 4.65569 | 36246 ft | 460 kts | 313° |
| 2026-04-30 22:27 | 48.32810 | 4.54781 | 36244 ft | 461 kts | 313° |
| 2026-04-30 22:28 | 48.39217 | 4.43969 | 36245 ft | 462 kts | 312° |
| 2026-04-30 22:29 | 48.47738 | 4.29499 | 36257 ft | 462 kts | 312° |
| 2026-04-30 22:31 | 48.62614 | 4.04091 | 36264 ft | 463 kts | 312° |
| 2026-04-30 22:32 | 48.73233 | 3.85784 | 36265 ft | 462 kts | 313° |
| 2026-04-30 22:33 | 48.84763 | 3.68793 | 36263 ft | 462 kts | 317° |
| 2026-04-30 22:35 | 48.96186 | 3.51704 | 36268 ft | 462 kts | 316° |
| 2026-04-30 22:36 | 49.07610 | 3.34441 | 36253 ft | 463 kts | 316° |
| 2026-04-30 22:37 | 49.16758 | 3.20566 | 36258 ft | 463 kts | 315° |
| 2026-04-30 22:38 | 49.25118 | 3.07810 | 36265 ft | 464 kts | 315° |
| 2026-04-30 22:39 | 49.31963 | 2.97322 | 36257 ft | 464 kts | 315° |
| 2026-04-30 22:40 | 49.45618 | 2.76276 | 35743 ft | 463 kts | 315° |
| 2026-04-30 22:41 | 49.52436 | 2.65684 | 35001 ft | 466 kts | 314° |
| 2026-04-30 22:41 | 49.57005 | 2.58558 | 34515 ft | 469 kts | 314° |
| 2026-04-30 22:42 | 49.65864 | 2.43799 | 33463 ft | 472 kts | 309° |
| 2026-04-30 22:43 | 49.70030 | 2.35954 | 32922 ft | 473 kts | 309° |
| 2026-04-30 22:43 | 49.74229 | 2.28114 | 32389 ft | 473 kts | 310° |
| 2026-04-30 22:44 | 49.78487 | 2.20322 | 31893 ft | 475 kts | 310° |
| 2026-04-30 22:45 | 49.87001 | 2.04749 | 30887 ft | 471 kts | 309° |
| 2026-04-30 22:45 | 49.91202 | 1.96992 | 30399 ft | 468 kts | 309° |
| 2026-04-30 22:46 | 49.95342 | 1.89324 | 29854 ft | 464 kts | 309° |
| 2026-04-30 22:47 | 50.03566 | 1.74015 | 28744 ft | 458 kts | 309° |
| 2026-04-30 22:47 | 50.07741 | 1.66582 | 28195 ft | 455 kts | 316° |
| 2026-04-30 22:48 | 50.12495 | 1.60107 | 27661 ft | 452 kts | 319° |
| 2026-04-30 22:49 | 50.19581 | 1.50490 | 26876 ft | 448 kts | 319° |
| 2026-04-30 22:49 | 50.26592 | 1.40908 | 26101 ft | 442 kts | 319° |
| 2026-04-30 22:50 | 50.35611 | 1.28539 | 24057 ft | 424 kts | 319° |
| 2026-04-30 22:51 | 50.39998 | 1.22505 | 23058 ft | 414 kts | 319° |
| 2026-04-30 22:51 | 50.44263 | 1.16617 | 22139 ft | 402 kts | 319° |
| 2026-04-30 22:52 | 50.46345 | 1.13735 | 21689 ft | 396 kts | 319° |
| 2026-04-30 22:52 | 50.50427 | 1.08076 | 20785 ft | 386 kts | 318° |
| 2026-04-30 22:53 | 50.54149 | 1.02136 | 19868 ft | 378 kts | 312° |
| 2026-04-30 22:53 | 50.57715 | 0.96128 | 18932 ft | 372 kts | 312° |
| 2026-04-30 22:53 | 50.59477 | 0.93158 | 18453 ft | 370 kts | 312° |
| 2026-04-30 22:54 | 50.62957 | 0.87264 | 17453 ft | 364 kts | 312° |
| 2026-04-30 22:55 | 50.68030 | 0.78588 | 15994 ft | 357 kts | 310° |
| 2026-04-30 22:55 | 50.71304 | 0.72352 | 14289 ft | 376 kts | 307° |
| 2026-04-30 22:56 | 50.74571 | 0.65773 | 12548 ft | 383 kts | 307° |
| 2026-04-30 22:56 | 50.79337 | 0.56278 | 11510 ft | 334 kts | 308° |
| 2026-04-30 22:57 | 50.82124 | 0.50803 | 10517 ft | 313 kts | 308° |
| 2026-04-30 22:57 | 50.84796 | 0.45544 | 10093 ft | 306 kts | 307° |
| 2026-04-30 22:58 | 50.87444 | 0.40306 | 9218 ft | 304 kts | 307° |
| 2026-04-30 22:59 | 50.91362 | 0.32527 | 8010 ft | 296 kts | 307° |
| 2026-04-30 22:59 | 50.95175 | 0.24917 | 6834 ft | 290 kts | 307° |